sensor_id;sensor_type;location;lat;lon;timestamp;P1;durP1;ratioP1;P2;durP2;ratioP2
57535;SDS011;43361;49.790;8.960;2023-03-05T00:06:16;4.53;;;3.00;;
57535;SDS011;43361;49.790;8.960;2023-03-05T00:16:16;3.90;;;2.92;;
57535;SDS011;43361;49.790;8.960;2023-03-05T00:36:18;4.47;;;2.90;;
57535;SDS011;43361;49.790;8.960;2023-03-05T00:46:19;6.32;;;2.90;;
57535;SDS011;43361;49.790;8.960;2023-03-05T01:06:20;3.97;;;2.53;;
57535;SDS011;43361;49.790;8.960;2023-03-05T01:16:21;3.58;;;2.55;;
57535;SDS011;43361;49.790;8.960;2023-03-05T01:36:23;5.90;;;2.80;;
57535;SDS011;43361;49.790;8.960;2023-03-05T01:46:26;4.88;;;2.60;;
57535;SDS011;43361;49.790;8.960;2023-03-05T01:56:28;3.53;;;2.15;;
57535;SDS011;43361;49.790;8.960;2023-03-05T02:06:29;4.70;;;2.63;;
57535;SDS011;43361;49.790;8.960;2023-03-05T02:26:36;3.55;;;2.53;;
57535;SDS011;43361;49.790;8.960;2023-03-05T02:36:36;2.78;;;2.03;;
57535;SDS011;43361;49.790;8.960;2023-03-05T02:56:38;2.83;;;2.40;;
57535;SDS011;43361;49.790;8.960;2023-03-05T03:06:39;3.28;;;2.28;;
57535;SDS011;43361;49.790;8.960;2023-03-05T03:26:40;3.37;;;2.10;;
57535;SDS011;43361;49.790;8.960;2023-03-05T03:36:41;2.60;;;2.00;;
57535;SDS011;43361;49.790;8.960;2023-03-05T03:56:44;3.30;;;2.10;;
57535;SDS011;43361;49.790;8.960;2023-03-05T04:06:45;2.70;;;1.90;;
57535;SDS011;43361;49.790;8.960;2023-03-05T04:26:47;2.73;;;2.07;;
57535;SDS011;43361;49.790;8.960;2023-03-05T04:36:47;2.55;;;1.95;;
57535;SDS011;43361;49.790;8.960;2023-03-05T04:56:49;2.70;;;2.00;;
57535;SDS011;43361;49.790;8.960;2023-03-05T05:06:50;2.58;;;1.88;;
57535;SDS011;43361;49.790;8.960;2023-03-05T05:16:55;3.75;;;1.80;;
57535;SDS011;43361;49.790;8.960;2023-03-05T05:26:55;2.70;;;1.73;;
57535;SDS011;43361;49.790;8.960;2023-03-05T05:46:57;2.57;;;1.60;;
57535;SDS011;43361;49.790;8.960;2023-03-05T05:56:57;1.88;;;1.50;;
57535;SDS011;43361;49.790;8.960;2023-03-05T06:16:59;3.40;;;2.00;;
57535;SDS011;43361;49.790;8.960;2023-03-05T06:27:00;3.25;;;1.90;;
57535;SDS011;43361;49.790;8.960;2023-03-05T06:47:02;8.83;;;2.87;;
57535;SDS011;43361;49.790;8.960;2023-03-05T06:57:03;5.22;;;2.83;;
57535;SDS011;43361;49.790;8.960;2023-03-05T07:17:05;16.97;;;3.37;;
57535;SDS011;43361;49.790;8.960;2023-03-05T07:27:06;22.67;;;4.30;;
57535;SDS011;43361;49.790;8.960;2023-03-05T07:37:08;22.33;;;4.88;;
57535;SDS011;43361;49.790;8.960;2023-03-05T07:47:08;16.42;;;4.28;;
57535;SDS011;43361;49.790;8.960;2023-03-05T07:57:10;16.20;;;3.83;;
57535;SDS011;43361;49.790;8.960;2023-03-05T08:07:13;14.80;;;3.38;;
57535;SDS011;43361;49.790;8.960;2023-03-05T08:17:14;16.00;;;4.38;;
57535;SDS011;43361;49.790;8.960;2023-03-05T08:27:15;11.65;;;4.30;;
57535;SDS011;43361;49.790;8.960;2023-03-05T08:47:17;13.43;;;4.70;;
57535;SDS011;43361;49.790;8.960;2023-03-05T08:57:18;16.88;;;4.78;;
57535;SDS011;43361;49.790;8.960;2023-03-05T09:07:19;15.07;;;4.57;;
57535;SDS011;43361;49.790;8.960;2023-03-05T09:17:20;14.77;;;4.88;;
57535;SDS011;43361;49.790;8.960;2023-03-05T09:37:22;13.00;;;4.53;;
57535;SDS011;43361;49.790;8.960;2023-03-05T09:47:25;15.77;;;4.63;;
57535;SDS011;43361;49.790;8.960;2023-03-05T09:57:35;10.98;;;3.72;;
57535;SDS011;43361;49.790;8.960;2023-03-05T10:07:38;11.50;;;3.70;;
57535;SDS011;43361;49.790;8.960;2023-03-05T10:17:46;11.20;;;3.88;;
57535;SDS011;43361;49.790;8.960;2023-03-05T10:27:49;14.23;;;3.92;;
57535;SDS011;43361;49.790;8.960;2023-03-05T10:37:55;15.15;;;4.30;;
57535;SDS011;43361;49.790;8.960;2023-03-05T10:48:01;11.95;;;4.32;;
57535;SDS011;43361;49.790;8.960;2023-03-05T10:58:09;13.52;;;5.53;;
57535;SDS011;43361;49.790;8.960;2023-03-05T11:08:23;10.60;;;4.53;;
57535;SDS011;43361;49.790;8.960;2023-03-05T11:18:25;11.55;;;4.20;;
57535;SDS011;43361;49.790;8.960;2023-03-05T11:28:27;27.33;;;4.25;;
57535;SDS011;43361;49.790;8.960;2023-03-05T11:38:29;12.82;;;4.05;;
57535;SDS011;43361;49.790;8.960;2023-03-05T11:48:30;7.90;;;3.45;;
57535;SDS011;43361;49.790;8.960;2023-03-05T11:58:37;11.38;;;3.80;;
57535;SDS011;43361;49.790;8.960;2023-03-05T12:08:39;10.50;;;3.95;;
57535;SDS011;43361;49.790;8.960;2023-03-05T12:18:48;10.93;;;3.67;;
57535;SDS011;43361;49.790;8.960;2023-03-05T12:28:56;17.52;;;4.40;;
57535;SDS011;43361;49.790;8.960;2023-03-05T12:38:58;25.25;;;3.72;;
57535;SDS011;43361;49.790;8.960;2023-03-05T12:48:59;17.38;;;3.17;;
57535;SDS011;43361;49.790;8.960;2023-03-05T12:59:00;9.02;;;3.10;;
57535;SDS011;43361;49.790;8.960;2023-03-05T13:09:05;13.60;;;2.75;;
57535;SDS011;43361;49.790;8.960;2023-03-05T13:19:14;13.50;;;2.88;;
57535;SDS011;43361;49.790;8.960;2023-03-05T13:29:15;8.73;;;2.90;;
57535;SDS011;43361;49.790;8.960;2023-03-05T13:39:20;15.07;;;3.38;;
57535;SDS011;43361;49.790;8.960;2023-03-05T13:49:22;6.95;;;2.65;;
57535;SDS011;43361;49.790;8.960;2023-03-05T13:59:25;11.30;;;2.78;;
57535;SDS011;43361;49.790;8.960;2023-03-05T14:09:27;7.97;;;2.38;;
57535;SDS011;43361;49.790;8.960;2023-03-05T14:19:34;5.88;;;2.00;;
57535;SDS011;43361;49.790;8.960;2023-03-05T14:29:36;7.28;;;2.08;;
57535;SDS011;43361;49.790;8.960;2023-03-05T14:49:38;10.10;;;2.77;;
57535;SDS011;43361;49.790;8.960;2023-03-05T14:59:38;7.50;;;2.47;;
57535;SDS011;43361;49.790;8.960;2023-03-05T15:19:40;6.47;;;2.00;;
57535;SDS011;43361;49.790;8.960;2023-03-05T15:29:41;7.15;;;1.85;;
57535;SDS011;43361;49.790;8.960;2023-03-05T15:49:43;3.57;;;1.90;;
57535;SDS011;43361;49.790;8.960;2023-03-05T15:59:43;4.30;;;1.70;;
57535;SDS011;43361;49.790;8.960;2023-03-05T16:19:45;3.47;;;1.93;;
57535;SDS011;43361;49.790;8.960;2023-03-05T16:29:47;6.28;;;1.90;;
57535;SDS011;43361;49.790;8.960;2023-03-05T16:49:49;8.93;;;1.83;;
57535;SDS011;43361;49.790;8.960;2023-03-05T16:59:49;7.43;;;2.67;;
57535;SDS011;43361;49.790;8.960;2023-03-05T17:09:51;7.30;;;2.75;;
57535;SDS011;43361;49.790;8.960;2023-03-05T17:19:52;12.45;;;3.63;;
57535;SDS011;43361;49.790;8.960;2023-03-05T17:29:54;9.57;;;3.35;;
57535;SDS011;43361;49.790;8.960;2023-03-05T17:39:54;8.18;;;3.03;;
57535;SDS011;43361;49.790;8.960;2023-03-05T17:49:56;4.90;;;2.30;;
57535;SDS011;43361;49.790;8.960;2023-03-05T17:59:57;10.88;;;2.72;;
57535;SDS011;43361;49.790;8.960;2023-03-05T18:09:59;4.88;;;2.22;;
57535;SDS011;43361;49.790;8.960;2023-03-05T18:19:59;9.88;;;2.83;;
57535;SDS011;43361;49.790;8.960;2023-03-05T18:30:01;5.78;;;1.55;;
57535;SDS011;43361;49.790;8.960;2023-03-05T18:40:01;6.20;;;1.70;;
57535;SDS011;43361;49.790;8.960;2023-03-05T18:50:11;3.08;;;1.67;;
57535;SDS011;43361;49.790;8.960;2023-03-05T19:00:14;4.65;;;1.60;;
57535;SDS011;43361;49.790;8.960;2023-03-05T19:10:16;3.28;;;1.60;;
57535;SDS011;43361;49.790;8.960;2023-03-05T19:20:17;2.92;;;1.40;;
57535;SDS011;43361;49.790;8.960;2023-03-05T19:30:19;3.88;;;1.60;;
57535;SDS011;43361;49.790;8.960;2023-03-05T19:40:20;5.47;;;1.70;;
57535;SDS011;43361;49.790;8.960;2023-03-05T20:00:22;2.87;;;1.63;;
57535;SDS011;43361;49.790;8.960;2023-03-05T20:10:23;2.95;;;1.80;;
57535;SDS011;43361;49.790;8.960;2023-03-05T20:30:25;2.17;;;1.77;;
57535;SDS011;43361;49.790;8.960;2023-03-05T20:40:25;2.13;;;1.50;;
57535;SDS011;43361;49.790;8.960;2023-03-05T21:00:28;2.23;;;1.53;;
57535;SDS011;43361;49.790;8.960;2023-03-05T21:10:28;2.70;;;1.65;;
57535;SDS011;43361;49.790;8.960;2023-03-05T21:30:31;2.50;;;1.37;;
57535;SDS011;43361;49.790;8.960;2023-03-05T21:40:33;2.20;;;1.40;;
57535;SDS011;43361;49.790;8.960;2023-03-05T21:50:37;2.45;;;1.30;;
57535;SDS011;43361;49.790;8.960;2023-03-05T22:00:38;2.53;;;1.50;;
57535;SDS011;43361;49.790;8.960;2023-03-05T22:10:40;2.38;;;1.50;;
57535;SDS011;43361;49.790;8.960;2023-03-05T22:20:40;2.38;;;1.60;;
57535;SDS011;43361;49.790;8.960;2023-03-05T22:30:42;2.87;;;1.80;;
57535;SDS011;43361;49.790;8.960;2023-03-05T22:40:44;3.10;;;1.77;;
57535;SDS011;43361;49.790;8.960;2023-03-05T22:50:53;2.30;;;1.50;;
57535;SDS011;43361;49.790;8.960;2023-03-05T23:00:54;2.65;;;1.75;;
57535;SDS011;43361;49.790;8.960;2023-03-05T23:20:56;2.83;;;1.80;;
57535;SDS011;43361;49.790;8.960;2023-03-05T23:30:56;2.92;;;1.80;;
57535;SDS011;43361;49.790;8.960;2023-03-05T23:51:00;3.03;;;1.70;;
